Monday, November 20, 2017, 4:30 AM EST

KESN, Easton / Newman Field

Location: Easton, MD, United States Lat: 38.8
Local Time: 4:30 AM EST ( 9:30 GMT) Lon: -76.067
Time Zone: US/Eastern Elev: 72 ft

Show me the last for .
Show Decoded

2017-11-20 04:16 METAR KESN 200916Z AUTO 32012G18KT 10SM SCT046 BKN060 06/M04 A3008 RMK AO2
                 T00601043 =
2017-11-20 03:56 METAR KESN 200856Z AUTO 31009KT 10SM SCT048 BKN060 06/M04 A3007 RMK AO2
                 T00571040 =
2017-11-20 03:36 METAR KESN 200836Z AUTO 32007KT 10SM SCT048 BKN060 06/M04 A3008 RMK AO2
                 T00551045 =
2017-11-20 03:16 METAR KESN 200816Z AUTO 34015G20KT 10SM SCT060 06/M05 A3007 RMK AO2 T00561051 =
2017-11-20 02:56 METAR KESN 200756Z AUTO 34017G24KT 10SM SCT065 06/M05 A3007 RMK AO2 T00561048 =
2017-11-20 02:36 METAR KESN 200736Z AUTO 33013G22KT 10SM BKN065 06/M04 A3006 RMK AO2 T00611042 =
2017-11-20 02:16 METAR KESN 200716Z AUTO 31013G17KT 10SM SCT050 OVC065 07/M04 A3005 RMK AO2
                 T00651037 =
2017-11-20 01:56 METAR KESN 200656Z AUTO 32015G21KT 10SM SCT043 BKN050 OVC065 07/M03 A3005 RMK
                 AO2 T00681035 =
2017-11-20 01:36 METAR KESN 200636Z AUTO 31009G15KT 10SM SCT043 BKN055 OVC065 07/M03 A3003 RMK
                 AO2 T00671027 =
2017-11-20 01:16 METAR KESN 200616Z AUTO 33013G20KT 10SM SCT047 SCT060 BKN075 07/M03 A3001 RMK
                 AO2 T00671035 =
2017-11-20 00:56 METAR KESN 200556Z AUTO 32013G21KT 10SM OVC075 07/M03 A3000 RMK AO2 T00701033
                 10081 20067 =
2017-11-20 00:36 METAR KESN 200536Z AUTO 31012G20KT 10SM SCT047 BKN075 07/M02 A3000 RMK AO2
                 T00731025 =
2017-11-20 00:16 METAR KESN 200516Z AUTO 29007G18KT 10SM SCT045 BKN075 08/M02 A2999 RMK AO2
                 T00751023 =
2017-11-19 23:56 METAR KESN 200456Z AUTO 32008KT 10SM BKN075 07/M02 A2999 RMK AO2 T00741025 =
2017-11-19 23:36 METAR KESN 200436Z AUTO 31014G21KT 10SM SCT065 BKN075 07/M02 A2998 RMK AO2
                 T00741025 =
2017-11-19 23:16 METAR KESN 200416Z AUTO 31013G17KT 10SM OVC065 08/M02 A2998 RMK AO2 T00751025 =
2017-11-19 22:56 METAR KESN 200356Z AUTO 31011G14KT 10SM BKN070 08/M02 A2997 RMK AO2 T00751022 =
2017-11-19 22:36 METAR KESN 200336Z AUTO 30007G19KT 10SM BKN070 07/M03 A2996 RMK AO2 T00741026 =
2017-11-19 22:16 METAR KESN 200316Z AUTO 32007G14KT 10SM SCT080 07/M02 A2996 RMK AO2 T00701025 =
2017-11-19 21:56 METAR KESN 200256Z AUTO 30006KT 10SM SCT080 07/M02 A2995 RMK AO2 T00701025 =
2017-11-19 21:45 METAR KESN 200245Z 30011G14KT 10SM BKN080 07/M03 A2995 =
2017-11-19 20:45 METAR KESN 200145Z 30004KT 10SM SCT070 07/M03 A2993 =
2017-11-19 19:46 METAR KESN 200046Z 31013G22KT 10SM BKN070 08/M04 A2991 =
2017-11-19 18:46 METAR KESN 192346Z 31011G25KT 10SM SCT060 SCT070 08/M04 A2989 =
2017-11-19 17:45 METAR KESN 192245Z 31013G21KT 10SM OVC060 08/M03 A2985 =
2017-11-19 16:47 METAR KESN 192147Z 31019G26KT 10SM SCT050 BKN060 08/M04 A2984 =
2017-11-19 15:45 METAR KESN 192045Z 31015G21KT 10SM SCT150 09/M03 A2980 =
2017-11-19 14:45 METAR KESN 191945Z 31017G30KT 10SM FEW150 11/M01 A2974 =
2017-11-19 13:45 METAR KESN 191845Z 31015G25KT 10SM FEW150 12/M01 A2973 =
2017-11-19 12:45 METAR KESN 191745Z 31023G30KT 10SM FEW100 12/M01 A2972 =
2017-11-19 11:45 METAR KESN 191645Z 31019G30KT 10SM FEW100 12/M01 A2972 =
2017-11-19 10:50 METAR KESN 191550Z 31021G35KT 10SM FEW100 12/00 A2971 =
2017-11-19 09:50 METAR KESN 191450Z 31019G29KT 10SM FEW100 12/00 A2968 =
2017-11-19 08:50 METAR KESN 191350Z 31018G29KT 10SM FEW100 10/00 A2965 =
2017-11-19 07:50 METAR KESN 191250Z 32015G25KT 10SM FEW100 10/02 A2960 =
2017-11-19 06:55 METAR KESN 191155Z 32023G36KT 10SM SCT060 12/03 A2952 =
2017-11-19 05:58 METAR KESN 191058Z 32019G36KT 10SM SCT025 SCT032 BKN038 15/09 A2946 =
2017-11-19 04:36 METAR KESN 190936Z AUTO 23018G24KT 10SM SCT008 SCT012 SCT017 16/14 A2938 RMK AO2
                 T01600136 =

Support USWX by starting your Amazon purchase here.